sensor_id;sensor_type;location;lat;lon;timestamp;temperature;humidity
77865;DHT22;67061;48.524;9.040;2023-06-19T00:02:26;20.70;62.80
77865;DHT22;67061;48.524;9.040;2023-06-19T00:04:53;20.60;64.00
77865;DHT22;67061;48.524;9.040;2023-06-19T00:07:20;20.50;63.70
77865;DHT22;67061;48.524;9.040;2023-06-19T00:09:47;20.50;63.90
77865;DHT22;67061;48.524;9.040;2023-06-19T00:12:14;20.50;64.00
77865;DHT22;67061;48.524;9.040;2023-06-19T00:14:46;20.50;63.70
77865;DHT22;67061;48.524;9.040;2023-06-19T00:17:15;20.50;64.10
77865;DHT22;67061;48.524;9.040;2023-06-19T00:19:50;20.40;63.90
77865;DHT22;67061;48.524;9.040;2023-06-19T00:22:17;20.30;63.70
77865;DHT22;67061;48.524;9.040;2023-06-19T00:24:44;20.30;63.30
77865;DHT22;67061;48.524;9.040;2023-06-19T00:27:11;20.30;63.50
77865;DHT22;67061;48.524;9.040;2023-06-19T00:29:38;20.10;64.40
77865;DHT22;67061;48.524;9.040;2023-06-19T00:32:06;20.00;65.10
77865;DHT22;67061;48.524;9.040;2023-06-19T00:34:34;20.00;65.70
77865;DHT22;67061;48.524;9.040;2023-06-19T00:37:05;20.00;65.30
77865;DHT22;67061;48.524;9.040;2023-06-19T00:39:32;20.00;65.50
77865;DHT22;67061;48.524;9.040;2023-06-19T00:41:58;20.00;65.80
77865;DHT22;67061;48.524;9.040;2023-06-19T00:44:25;20.00;66.20
77865;DHT22;67061;48.524;9.040;2023-06-19T00:46:57;20.00;65.60
77865;DHT22;67061;48.524;9.040;2023-06-19T00:49:27;20.00;66.40
77865;DHT22;67061;48.524;9.040;2023-06-19T00:51:55;20.00;66.20
77865;DHT22;67061;48.524;9.040;2023-06-19T00:54:22;20.00;66.20
77865;DHT22;67061;48.524;9.040;2023-06-19T00:56:49;20.00;66.50
77865;DHT22;67061;48.524;9.040;2023-06-19T00:59:17;20.00;66.60
77865;DHT22;67061;48.524;9.040;2023-06-19T01:01:45;20.00;66.60
77865;DHT22;67061;48.524;9.040;2023-06-19T01:04:13;20.00;65.90
77865;DHT22;67061;48.524;9.040;2023-06-19T01:06:46;20.00;66.30
77865;DHT22;67061;48.524;9.040;2023-06-19T01:09:16;20.00;66.70
77865;DHT22;67061;48.524;9.040;2023-06-19T01:11:51;19.90;67.20
77865;DHT22;67061;48.524;9.040;2023-06-19T01:14:22;20.00;67.10
77865;DHT22;67061;48.524;9.040;2023-06-19T01:16:50;20.00;66.90
77865;DHT22;67061;48.524;9.040;2023-06-19T01:19:19;20.00;66.40
77865;DHT22;67061;48.524;9.040;2023-06-19T01:21:46;19.80;66.80
77865;DHT22;67061;48.524;9.040;2023-06-19T01:24:15;19.70;68.00
77865;DHT22;67061;48.524;9.040;2023-06-19T01:26:42;19.50;68.80
77865;DHT22;67061;48.524;9.040;2023-06-19T01:29:12;19.50;69.60
77865;DHT22;67061;48.524;9.040;2023-06-19T01:31:53;19.40;69.50
77865;DHT22;67061;48.524;9.040;2023-06-19T01:34:22;19.40;68.70
77865;DHT22;67061;48.524;9.040;2023-06-19T01:36:50;19.40;68.40
77865;DHT22;67061;48.524;9.040;2023-06-19T01:39:20;19.50;68.60
77865;DHT22;67061;48.524;9.040;2023-06-19T01:41:47;19.50;67.90
77865;DHT22;67061;48.524;9.040;2023-06-19T01:44:15;19.50;67.70
77865;DHT22;67061;48.524;9.040;2023-06-19T01:46:42;19.50;68.00
77865;DHT22;67061;48.524;9.040;2023-06-19T01:49:09;19.60;68.00
77865;DHT22;67061;48.524;9.040;2023-06-19T01:51:35;19.60;67.40
77865;DHT22;67061;48.524;9.040;2023-06-19T01:54:03;19.60;67.30
77865;DHT22;67061;48.524;9.040;2023-06-19T01:56:32;19.50;67.60
77865;DHT22;67061;48.524;9.040;2023-06-19T01:58:59;19.50;66.70
77865;DHT22;67061;48.524;9.040;2023-06-19T02:01:26;19.60;67.30
77865;DHT22;67061;48.524;9.040;2023-06-19T02:03:53;19.60;66.70
77865;DHT22;67061;48.524;9.040;2023-06-19T02:06:20;19.50;67.40
77865;DHT22;67061;48.524;9.040;2023-06-19T02:08:48;19.50;66.60
77865;DHT22;67061;48.524;9.040;2023-06-19T02:11:15;19.50;66.90
77865;DHT22;67061;48.524;9.040;2023-06-19T02:13:43;19.50;67.10
77865;DHT22;67061;48.524;9.040;2023-06-19T02:16:10;19.50;66.60
77865;DHT22;67061;48.524;9.040;2023-06-19T02:18:37;19.50;67.30
77865;DHT22;67061;48.524;9.040;2023-06-19T02:21:03;19.50;67.00
77865;DHT22;67061;48.524;9.040;2023-06-19T02:23:30;19.50;67.20
77865;DHT22;67061;48.524;9.040;2023-06-19T02:25:57;19.50;66.60
77865;DHT22;67061;48.524;9.040;2023-06-19T02:28:24;19.50;67.40
77865;DHT22;67061;48.524;9.040;2023-06-19T02:30:53;19.50;67.20
77865;DHT22;67061;48.524;9.040;2023-06-19T02:33:20;19.50;66.90
77865;DHT22;67061;48.524;9.040;2023-06-19T02:35:47;19.50;67.30
77865;DHT22;67061;48.524;9.040;2023-06-19T02:38:14;19.50;66.90
77865;DHT22;67061;48.524;9.040;2023-06-19T02:40:41;19.50;66.70
77865;DHT22;67061;48.524;9.040;2023-06-19T02:43:08;19.60;67.30
77865;DHT22;67061;48.524;9.040;2023-06-19T02:45:35;19.70;67.70
77865;DHT22;67061;48.524;9.040;2023-06-19T02:48:04;19.70;67.60
77865;DHT22;67061;48.524;9.040;2023-06-19T02:50:31;19.70;66.60
77865;DHT22;67061;48.524;9.040;2023-06-19T02:52:57;19.70;67.10
77865;DHT22;67061;48.524;9.040;2023-06-19T02:55:24;19.70;67.00
77865;DHT22;67061;48.524;9.040;2023-06-19T02:57:51;19.80;67.00
77865;DHT22;67061;48.524;9.040;2023-06-19T03:00:19;19.80;66.70
77865;DHT22;67061;48.524;9.040;2023-06-19T03:02:46;19.80;67.70
77865;DHT22;67061;48.524;9.040;2023-06-19T03:05:15;19.70;67.30
77865;DHT22;67061;48.524;9.040;2023-06-19T03:07:42;19.80;67.90
77865;DHT22;67061;48.524;9.040;2023-06-19T03:10:09;19.90;67.20
77865;DHT22;67061;48.524;9.040;2023-06-19T03:12:36;19.90;67.30
77865;DHT22;67061;48.524;9.040;2023-06-19T03:15:04;19.90;67.50
77865;DHT22;67061;48.524;9.040;2023-06-19T03:17:31;19.90;67.80
77865;DHT22;67061;48.524;9.040;2023-06-19T03:19:58;19.90;67.90
77865;DHT22;67061;48.524;9.040;2023-06-19T03:22:26;19.90;67.60
77865;DHT22;67061;48.524;9.040;2023-06-19T03:24:53;19.90;67.90
77865;DHT22;67061;48.524;9.040;2023-06-19T03:27:20;19.90;67.80
77865;DHT22;67061;48.524;9.040;2023-06-19T03:29:47;19.90;67.50
77865;DHT22;67061;48.524;9.040;2023-06-19T03:32:14;19.90;67.60
77865;DHT22;67061;48.524;9.040;2023-06-19T03:34:40;19.90;67.70
77865;DHT22;67061;48.524;9.040;2023-06-19T03:37:07;19.90;67.80
77865;DHT22;67061;48.524;9.040;2023-06-19T03:39:36;20.00;67.90
77865;DHT22;67061;48.524;9.040;2023-06-19T03:42:03;19.90;67.80
77865;DHT22;67061;48.524;9.040;2023-06-19T03:44:30;19.90;68.20
77865;DHT22;67061;48.524;9.040;2023-06-19T03:46:57;19.90;67.90
77865;DHT22;67061;48.524;9.040;2023-06-19T03:49:24;20.00;66.90
77865;DHT22;67061;48.524;9.040;2023-06-19T03:51:51;20.00;66.30
77865;DHT22;67061;48.524;9.040;2023-06-19T03:54:20;20.10;66.80
77865;DHT22;67061;48.524;9.040;2023-06-19T03:56:48;20.10;66.70
77865;DHT22;67061;48.524;9.040;2023-06-19T03:59:15;20.10;66.60
77865;DHT22;67061;48.524;9.040;2023-06-19T04:01:42;20.10;66.80
77865;DHT22;67061;48.524;9.040;2023-06-19T04:04:09;20.10;67.80
77865;DHT22;67061;48.524;9.040;2023-06-19T04:06:35;20.00;69.10
77865;DHT22;67061;48.524;9.040;2023-06-19T04:09:03;19.90;69.60
77865;DHT22;67061;48.524;9.040;2023-06-19T04:11:31;19.90;70.40
77865;DHT22;67061;48.524;9.040;2023-06-19T04:13:59;19.80;70.00
77865;DHT22;67061;48.524;9.040;2023-06-19T04:16:26;19.70;71.20
77865;DHT22;67061;48.524;9.040;2023-06-19T04:18:53;19.70;72.70
77865;DHT22;67061;48.524;9.040;2023-06-19T04:21:20;19.70;71.30
77865;DHT22;67061;48.524;9.040;2023-06-19T04:23:47;19.70;72.20
77865;DHT22;67061;48.524;9.040;2023-06-19T04:26:14;19.60;73.20
77865;DHT22;67061;48.524;9.040;2023-06-19T04:28:41;19.60;72.50
77865;DHT22;67061;48.524;9.040;2023-06-19T04:31:09;19.50;73.00
77865;DHT22;67061;48.524;9.040;2023-06-19T04:33:36;19.50;73.80
77865;DHT22;67061;48.524;9.040;2023-06-19T04:36:05;19.50;74.00
77865;DHT22;67061;48.524;9.040;2023-06-19T04:38:35;19.50;74.20
77865;DHT22;67061;48.524;9.040;2023-06-19T04:41:02;19.40;74.00
77865;DHT22;67061;48.524;9.040;2023-06-19T04:43:29;19.40;74.20
77865;DHT22;67061;48.524;9.040;2023-06-19T04:45:56;19.40;73.90
77865;DHT22;67061;48.524;9.040;2023-06-19T04:48:24;19.50;74.00
77865;DHT22;67061;48.524;9.040;2023-06-19T04:50:51;19.50;73.80
77865;DHT22;67061;48.524;9.040;2023-06-19T04:53:18;19.50;73.30
77865;DHT22;67061;48.524;9.040;2023-06-19T04:55:45;19.60;72.90
77865;DHT22;67061;48.524;9.040;2023-06-19T04:58:12;19.70;73.40
77865;DHT22;67061;48.524;9.040;2023-06-19T05:00:39;19.70;73.50
77865;DHT22;67061;48.524;9.040;2023-06-19T05:03:06;19.70;73.80
77865;DHT22;67061;48.524;9.040;2023-06-19T05:05:34;19.70;74.00
77865;DHT22;67061;48.524;9.040;2023-06-19T05:08:01;19.70;74.60
77865;DHT22;67061;48.524;9.040;2023-06-19T05:10:28;19.70;74.30
77865;DHT22;67061;48.524;9.040;2023-06-19T05:12:55;19.70;73.80
77865;DHT22;67061;48.524;9.040;2023-06-19T05:15:22;19.70;74.20
77865;DHT22;67061;48.524;9.040;2023-06-19T05:17:48;19.80;74.10
77865;DHT22;67061;48.524;9.040;2023-06-19T05:20:15;19.90;73.50
77865;DHT22;67061;48.524;9.040;2023-06-19T05:22:44;19.90;73.30
77865;DHT22;67061;48.524;9.040;2023-06-19T05:25:11;20.00;73.30
77865;DHT22;67061;48.524;9.040;2023-06-19T05:27:38;20.00;73.00
77865;DHT22;67061;48.524;9.040;2023-06-19T05:30:06;20.00;72.70
77865;DHT22;67061;48.524;9.040;2023-06-19T05:32:33;20.00;72.80
77865;DHT22;67061;48.524;9.040;2023-06-19T05:35:00;20.00;73.40
77865;DHT22;67061;48.524;9.040;2023-06-19T05:37:27;20.10;72.40
77865;DHT22;67061;48.524;9.040;2023-06-19T05:39:56;20.10;72.50
77865;DHT22;67061;48.524;9.040;2023-06-19T05:42:23;20.20;72.10
77865;DHT22;67061;48.524;9.040;2023-06-19T05:44:49;20.30;72.50
77865;DHT22;67061;48.524;9.040;2023-06-19T05:47:16;20.30;71.80
77865;DHT22;67061;48.524;9.040;2023-06-19T05:49:46;20.30;72.70
77865;DHT22;67061;48.524;9.040;2023-06-19T05:52:14;20.30;72.40
77865;DHT22;67061;48.524;9.040;2023-06-19T05:54:41;20.40;72.60
77865;DHT22;67061;48.524;9.040;2023-06-19T05:57:09;20.40;72.50
77865;DHT22;67061;48.524;9.040;2023-06-19T05:59:37;20.40;71.80
77865;DHT22;67061;48.524;9.040;2023-06-19T06:02:04;20.40;71.70
77865;DHT22;67061;48.524;9.040;2023-06-19T06:04:31;20.50;72.50
77865;DHT22;67061;48.524;9.040;2023-06-19T06:06:59;20.50;72.00
77865;DHT22;67061;48.524;9.040;2023-06-19T06:09:26;20.50;72.20
77865;DHT22;67061;48.524;9.040;2023-06-19T06:11:53;20.60;71.60
77865;DHT22;67061;48.524;9.040;2023-06-19T06:14:21;20.60;71.60
77865;DHT22;67061;48.524;9.040;2023-06-19T06:16:48;20.70;71.50
77865;DHT22;67061;48.524;9.040;2023-06-19T06:19:14;20.80;71.40
77865;DHT22;67061;48.524;9.040;2023-06-19T06:21:41;20.90;71.50
77865;DHT22;67061;48.524;9.040;2023-06-19T06:24:08;20.90;70.90
77865;DHT22;67061;48.524;9.040;2023-06-19T06:26:35;20.90;71.20
77865;DHT22;67061;48.524;9.040;2023-06-19T06:29:02;21.00;70.80
77865;DHT22;67061;48.524;9.040;2023-06-19T06:31:31;21.00;70.90
77865;DHT22;67061;48.524;9.040;2023-06-19T06:33:58;21.00;70.90
77865;DHT22;67061;48.524;9.040;2023-06-19T06:36:25;21.10;71.20
77865;DHT22;67061;48.524;9.040;2023-06-19T06:38:52;21.10;71.00
77865;DHT22;67061;48.524;9.040;2023-06-19T06:41:18;21.10;70.30
77865;DHT22;67061;48.524;9.040;2023-06-19T06:43:45;21.20;70.10
77865;DHT22;67061;48.524;9.040;2023-06-19T06:46:12;21.30;70.50
77865;DHT22;67061;48.524;9.040;2023-06-19T06:48:41;21.30;70.20
77865;DHT22;67061;48.524;9.040;2023-06-19T06:51:08;21.30;70.40
77865;DHT22;67061;48.524;9.040;2023-06-19T06:53:36;21.10;70.80
77865;DHT22;67061;48.524;9.040;2023-06-19T06:56:03;21.30;70.50
77865;DHT22;67061;48.524;9.040;2023-06-19T06:58:30;21.30;70.30
77865;DHT22;67061;48.524;9.040;2023-06-19T07:00:56;21.40;70.20
77865;DHT22;67061;48.524;9.040;2023-06-19T07:03:23;21.40;70.10
77865;DHT22;67061;48.524;9.040;2023-06-19T07:05:52;21.50;69.90
77865;DHT22;67061;48.524;9.040;2023-06-19T07:08:19;21.50;70.30
77865;DHT22;67061;48.524;9.040;2023-06-19T07:10:46;21.60;69.00
77865;DHT22;67061;48.524;9.040;2023-06-19T07:13:13;21.70;68.70
77865;DHT22;67061;48.524;9.040;2023-06-19T07:15:40;21.70;68.50
77865;DHT22;67061;48.524;9.040;2023-06-19T07:18:07;21.70;68.70
77865;DHT22;67061;48.524;9.040;2023-06-19T07:20:34;21.70;69.40
77865;DHT22;67061;48.524;9.040;2023-06-19T07:23:02;21.70;68.50
77865;DHT22;67061;48.524;9.040;2023-06-19T07:25:29;21.70;67.80
77865;DHT22;67061;48.524;9.040;2023-06-19T07:27:59;21.80;68.10
77865;DHT22;67061;48.524;9.040;2023-06-19T07:30:26;21.80;68.00
77865;DHT22;67061;48.524;9.040;2023-06-19T07:32:53;21.90;67.90
77865;DHT22;67061;48.524;9.040;2023-06-19T07:35:20;21.90;67.90
77865;DHT22;67061;48.524;9.040;2023-06-19T07:37:47;22.10;66.80
77865;DHT22;67061;48.524;9.040;2023-06-19T07:40:15;22.40;65.70
77865;DHT22;67061;48.524;9.040;2023-06-19T07:42:42;22.60;65.20
77865;DHT22;67061;48.524;9.040;2023-06-19T07:45:11;22.90;64.30
77865;DHT22;67061;48.524;9.040;2023-06-19T07:47:38;23.10;63.40
77865;DHT22;67061;48.524;9.040;2023-06-19T07:50:06;23.20;63.00
77865;DHT22;67061;48.524;9.040;2023-06-19T07:52:33;23.30;62.80
77865;DHT22;67061;48.524;9.040;2023-06-19T07:54:59;23.40;62.10
77865;DHT22;67061;48.524;9.040;2023-06-19T07:57:28;23.50;61.50
77865;DHT22;67061;48.524;9.040;2023-06-19T07:59:55;23.40;62.00
77865;DHT22;67061;48.524;9.040;2023-06-19T08:02:22;23.40;62.20
77865;DHT22;67061;48.524;9.040;2023-06-19T08:04:49;23.40;62.00
77865;DHT22;67061;48.524;9.040;2023-06-19T08:07:16;23.50;61.90
77865;DHT22;67061;48.524;9.040;2023-06-19T08:09:43;23.50;62.20
77865;DHT22;67061;48.524;9.040;2023-06-19T08:12:10;23.60;61.30
77865;DHT22;67061;48.524;9.040;2023-06-19T08:14:38;23.60;60.00
77865;DHT22;67061;48.524;9.040;2023-06-19T08:17:06;23.60;60.20
77865;DHT22;67061;48.524;9.040;2023-06-19T08:19:33;23.60;60.30
77865;DHT22;67061;48.524;9.040;2023-06-19T08:22:00;23.60;60.40
77865;DHT22;67061;48.524;9.040;2023-06-19T08:24:27;23.60;59.20
77865;DHT22;67061;48.524;9.040;2023-06-19T08:26:54;23.70;58.90
77865;DHT22;67061;48.524;9.040;2023-06-19T08:29:21;23.80;59.40
77865;DHT22;67061;48.524;9.040;2023-06-19T08:31:50;23.90;59.40
77865;DHT22;67061;48.524;9.040;2023-06-19T08:34:17;24.00;59.70
77865;DHT22;67061;48.524;9.040;2023-06-19T08:36:44;24.20;58.40
77865;DHT22;67061;48.524;9.040;2023-06-19T08:39:11;24.30;58.70
77865;DHT22;67061;48.524;9.040;2023-06-19T08:41:38;24.50;58.00
77865;DHT22;67061;48.524;9.040;2023-06-19T08:44:07;24.60;57.90
77865;DHT22;67061;48.524;9.040;2023-06-19T08:46:35;24.70;57.30
77865;DHT22;67061;48.524;9.040;2023-06-19T08:49:04;24.90;55.50
77865;DHT22;67061;48.524;9.040;2023-06-19T08:51:33;25.00;55.70
77865;DHT22;67061;48.524;9.040;2023-06-19T08:54:02;25.20;52.00
77865;DHT22;67061;48.524;9.040;2023-06-19T08:56:30;25.30;51.30
77865;DHT22;67061;48.524;9.040;2023-06-19T08:59:08;25.40;50.50
77865;DHT22;67061;48.524;9.040;2023-06-19T09:01:35;25.50;51.00
77865;DHT22;67061;48.524;9.040;2023-06-19T09:04:10;25.60;50.50
77865;DHT22;67061;48.524;9.040;2023-06-19T09:06:48;25.60;51.30
77865;DHT22;67061;48.524;9.040;2023-06-19T09:09:15;25.80;50.70
77865;DHT22;67061;48.524;9.040;2023-06-19T09:11:42;25.90;49.80
77865;DHT22;67061;48.524;9.040;2023-06-19T09:14:12;25.80;49.60
77865;DHT22;67061;48.524;9.040;2023-06-19T09:16:40;25.80;49.60
77865;DHT22;67061;48.524;9.040;2023-06-19T09:19:08;25.70;50.00
77865;DHT22;67061;48.524;9.040;2023-06-19T09:21:36;25.70;49.40
77865;DHT22;67061;48.524;9.040;2023-06-19T09:24:05;25.60;50.70
77865;DHT22;67061;48.524;9.040;2023-06-19T09:26:33;25.80;49.60
77865;DHT22;67061;48.524;9.040;2023-06-19T09:29:10;25.90;50.10
77865;DHT22;67061;48.524;9.040;2023-06-19T09:31:37;26.00;49.40
77865;DHT22;67061;48.524;9.040;2023-06-19T09:34:05;26.00;49.90
77865;DHT22;67061;48.524;9.040;2023-06-19T09:36:35;26.10;49.60
77865;DHT22;67061;48.524;9.040;2023-06-19T09:39:02;26.00;48.90
77865;DHT22;67061;48.524;9.040;2023-06-19T09:41:30;25.90;49.70
77865;DHT22;67061;48.524;9.040;2023-06-19T09:43:58;25.80;49.30
77865;DHT22;67061;48.524;9.040;2023-06-19T09:46:29;25.80;49.40
77865;DHT22;67061;48.524;9.040;2023-06-19T09:48:59;25.80;50.20
77865;DHT22;67061;48.524;9.040;2023-06-19T09:51:30;25.90;50.20
77865;DHT22;67061;48.524;9.040;2023-06-19T09:53:59;26.00;49.30
77865;DHT22;67061;48.524;9.040;2023-06-19T09:56:29;26.00;49.30
77865;DHT22;67061;48.524;9.040;2023-06-19T09:58:57;26.00;48.40
77865;DHT22;67061;48.524;9.040;2023-06-19T10:01:27;26.10;49.10
77865;DHT22;67061;48.524;9.040;2023-06-19T10:04:04;26.10;48.30
77865;DHT22;67061;48.524;9.040;2023-06-19T10:06:32;26.10;48.20
77865;DHT22;67061;48.524;9.040;2023-06-19T10:09:08;26.00;49.20
77865;DHT22;67061;48.524;9.040;2023-06-19T10:11:46;26.10;48.50
77865;DHT22;67061;48.524;9.040;2023-06-19T10:14:13;26.10;48.60
77865;DHT22;67061;48.524;9.040;2023-06-19T10:16:43;26.20;48.60
77865;DHT22;67061;48.524;9.040;2023-06-19T10:19:17;26.30;48.30
77865;DHT22;67061;48.524;9.040;2023-06-19T10:21:45;26.30;48.60
77865;DHT22;67061;48.524;9.040;2023-06-19T10:24:16;26.30;48.00
77865;DHT22;67061;48.524;9.040;2023-06-19T10:26:56;26.40;48.30
77865;DHT22;67061;48.524;9.040;2023-06-19T10:29:23;26.50;47.60
77865;DHT22;67061;48.524;9.040;2023-06-19T10:31:51;26.60;47.70
77865;DHT22;67061;48.524;9.040;2023-06-19T10:34:18;26.60;48.00
77865;DHT22;67061;48.524;9.040;2023-06-19T10:36:45;26.70;48.40
77865;DHT22;67061;48.524;9.040;2023-06-19T10:39:12;26.80;48.40
77865;DHT22;67061;48.524;9.040;2023-06-19T10:41:41;27.00;48.10
77865;DHT22;67061;48.524;9.040;2023-06-19T10:44:08;27.10;46.00
77865;DHT22;67061;48.524;9.040;2023-06-19T10:46:38;27.20;46.90
77865;DHT22;67061;48.524;9.040;2023-06-19T10:49:07;27.20;46.10
77865;DHT22;67061;48.524;9.040;2023-06-19T10:51:36;27.30;46.50
77865;DHT22;67061;48.524;9.040;2023-06-19T10:54:03;27.40;46.70
77865;DHT22;67061;48.524;9.040;2023-06-19T10:56:31;27.60;45.70
77865;DHT22;67061;48.524;9.040;2023-06-19T10:59:00;27.60;46.20
77865;DHT22;67061;48.524;9.040;2023-06-19T11:01:34;27.80;45.60
77865;DHT22;67061;48.524;9.040;2023-06-19T11:04:02;28.00;43.60
77865;DHT22;67061;48.524;9.040;2023-06-19T11:06:30;28.10;43.00
77865;DHT22;67061;48.524;9.040;2023-06-19T11:08:57;28.00;43.40
77865;DHT22;67061;48.524;9.040;2023-06-19T11:11:35;27.90;44.00
77865;DHT22;67061;48.524;9.040;2023-06-19T11:14:04;28.00;43.40
77865;DHT22;67061;48.524;9.040;2023-06-19T11:16:31;28.30;43.30
77865;DHT22;67061;48.524;9.040;2023-06-19T11:18:59;28.10;42.60
77865;DHT22;67061;48.524;9.040;2023-06-19T11:21:30;28.00;42.60
77865;DHT22;67061;48.524;9.040;2023-06-19T11:23:58;27.90;42.10
77865;DHT22;67061;48.524;9.040;2023-06-19T11:26:26;27.90;42.40
77865;DHT22;67061;48.524;9.040;2023-06-19T11:28:53;28.10;43.70
77865;DHT22;67061;48.524;9.040;2023-06-19T11:31:26;28.30;41.90
77865;DHT22;67061;48.524;9.040;2023-06-19T11:33:57;28.30;41.80
77865;DHT22;67061;48.524;9.040;2023-06-19T11:36:24;28.30;40.90
77865;DHT22;67061;48.524;9.040;2023-06-19T11:38:51;28.40;41.60
77865;DHT22;67061;48.524;9.040;2023-06-19T11:41:25;28.70;41.40
77865;DHT22;67061;48.524;9.040;2023-06-19T11:43:58;28.90;40.40
77865;DHT22;67061;48.524;9.040;2023-06-19T11:46:30;29.20;40.70
77865;DHT22;67061;48.524;9.040;2023-06-19T11:49:07;29.50;40.50
77865;DHT22;67061;48.524;9.040;2023-06-19T11:51:34;29.70;40.20
77865;DHT22;67061;48.524;9.040;2023-06-19T11:54:01;29.90;38.90
77865;DHT22;67061;48.524;9.040;2023-06-19T11:56:28;30.00;38.70
77865;DHT22;67061;48.524;9.040;2023-06-19T11:58:55;30.20;39.20
77865;DHT22;67061;48.524;9.040;2023-06-19T12:01:22;30.30;38.00
77865;DHT22;67061;48.524;9.040;2023-06-19T12:03:50;30.50;38.20
77865;DHT22;67061;48.524;9.040;2023-06-19T12:06:18;30.60;38.00
77865;DHT22;67061;48.524;9.040;2023-06-19T12:08:45;30.80;36.90
77865;DHT22;67061;48.524;9.040;2023-06-19T12:11:12;30.80;36.40
77865;DHT22;67061;48.524;9.040;2023-06-19T12:13:40;30.60;37.00
77865;DHT22;67061;48.524;9.040;2023-06-19T12:16:06;30.30;35.90
77865;DHT22;67061;48.524;9.040;2023-06-19T12:18:33;30.00;37.60
77865;DHT22;67061;48.524;9.040;2023-06-19T12:21:02;29.90;37.00
77865;DHT22;67061;48.524;9.040;2023-06-19T12:23:29;29.70;37.40
77865;DHT22;67061;48.524;9.040;2023-06-19T12:25:56;29.50;38.20
77865;DHT22;67061;48.524;9.040;2023-06-19T12:28:23;29.50;38.40
77865;DHT22;67061;48.524;9.040;2023-06-19T12:30:52;29.50;38.70
77865;DHT22;67061;48.524;9.040;2023-06-19T12:33:20;29.50;38.20
77865;DHT22;67061;48.524;9.040;2023-06-19T12:35:47;29.30;39.70
77865;DHT22;67061;48.524;9.040;2023-06-19T12:38:15;29.50;39.00
77865;DHT22;67061;48.524;9.040;2023-06-19T12:40:43;29.50;39.10
77865;DHT22;67061;48.524;9.040;2023-06-19T12:43:10;29.70;37.70
77865;DHT22;67061;48.524;9.040;2023-06-19T12:45:37;29.80;37.50
77865;DHT22;67061;48.524;9.040;2023-06-19T12:48:05;29.70;38.60
77865;DHT22;67061;48.524;9.040;2023-06-19T12:50:31;29.70;38.40
77865;DHT22;67061;48.524;9.040;2023-06-19T12:52:58;29.70;37.30
77865;DHT22;67061;48.524;9.040;2023-06-19T12:55:27;29.70;38.10
77865;DHT22;67061;48.524;9.040;2023-06-19T12:57:53;29.80;37.90
77865;DHT22;67061;48.524;9.040;2023-06-19T13:00:20;30.00;37.50
77865;DHT22;67061;48.524;9.040;2023-06-19T13:02:47;30.20;37.10
77865;DHT22;67061;48.524;9.040;2023-06-19T13:05:14;30.40;36.10
77865;DHT22;67061;48.524;9.040;2023-06-19T13:07:51;30.50;35.60
77865;DHT22;67061;48.524;9.040;2023-06-19T13:10:24;30.50;35.40
77865;DHT22;67061;48.524;9.040;2023-06-19T13:13:01;30.50;35.70
77865;DHT22;67061;48.524;9.040;2023-06-19T13:15:31;30.30;35.00
77865;DHT22;67061;48.524;9.040;2023-06-19T13:18:05;30.00;35.50
77865;DHT22;67061;48.524;9.040;2023-06-19T13:20:35;30.10;36.00
77865;DHT22;67061;48.524;9.040;2023-06-19T13:23:02;30.00;35.70
77865;DHT22;67061;48.524;9.040;2023-06-19T13:25:29;30.10;35.60
77865;DHT22;67061;48.524;9.040;2023-06-19T13:27:59;30.30;35.80
77865;DHT22;67061;48.524;9.040;2023-06-19T13:30:26;30.30;35.40
77865;DHT22;67061;48.524;9.040;2023-06-19T13:32:53;30.40;34.90
77865;DHT22;67061;48.524;9.040;2023-06-19T13:35:20;30.40;35.20
77865;DHT22;67061;48.524;9.040;2023-06-19T13:37:47;30.30;35.30
77865;DHT22;67061;48.524;9.040;2023-06-19T13:40:14;30.30;34.60
77865;DHT22;67061;48.524;9.040;2023-06-19T13:42:41;30.30;34.90
77865;DHT22;67061;48.524;9.040;2023-06-19T13:45:10;30.10;35.20
77865;DHT22;67061;48.524;9.040;2023-06-19T13:47:37;30.10;36.00
77865;DHT22;67061;48.524;9.040;2023-06-19T13:50:05;30.20;35.00
77865;DHT22;67061;48.524;9.040;2023-06-19T13:52:32;30.20;35.20
77865;DHT22;67061;48.524;9.040;2023-06-19T13:54:59;30.30;34.90
77865;DHT22;67061;48.524;9.040;2023-06-19T13:57:28;30.20;35.20
77865;DHT22;67061;48.524;9.040;2023-06-19T13:59:55;30.30;35.80
77865;DHT22;67061;48.524;9.040;2023-06-19T14:02:23;30.40;35.00
77865;DHT22;67061;48.524;9.040;2023-06-19T14:04:57;30.30;35.00
77865;DHT22;67061;48.524;9.040;2023-06-19T14:07:26;30.20;35.40
77865;DHT22;67061;48.524;9.040;2023-06-19T14:09:53;30.40;36.00
77865;DHT22;67061;48.524;9.040;2023-06-19T14:12:20;30.50;35.10
77865;DHT22;67061;48.524;9.040;2023-06-19T14:14:47;30.60;35.00
77865;DHT22;67061;48.524;9.040;2023-06-19T14:17:14;30.70;34.20
77865;DHT22;67061;48.524;9.040;2023-06-19T14:19:42;30.50;34.70
77865;DHT22;67061;48.524;9.040;2023-06-19T14:22:09;30.50;35.00
77865;DHT22;67061;48.524;9.040;2023-06-19T14:24:36;30.50;34.80
77865;DHT22;67061;48.524;9.040;2023-06-19T14:27:09;30.40;34.70
77865;DHT22;67061;48.524;9.040;2023-06-19T14:29:35;30.30;35.80
77865;DHT22;67061;48.524;9.040;2023-06-19T14:32:03;30.40;35.00
77865;DHT22;67061;48.524;9.040;2023-06-19T14:34:30;30.40;34.70
77865;DHT22;67061;48.524;9.040;2023-06-19T14:36:58;30.10;35.00
77865;DHT22;67061;48.524;9.040;2023-06-19T14:39:25;30.00;35.90
77865;DHT22;67061;48.524;9.040;2023-06-19T14:41:52;30.10;36.00
77865;DHT22;67061;48.524;9.040;2023-06-19T14:44:19;30.10;35.70
77865;DHT22;67061;48.524;9.040;2023-06-19T14:46:46;30.00;35.60
77865;DHT22;67061;48.524;9.040;2023-06-19T14:49:13;30.10;35.50
77865;DHT22;67061;48.524;9.040;2023-06-19T14:51:41;30.10;36.20
77865;DHT22;67061;48.524;9.040;2023-06-19T14:54:09;30.10;36.00
77865;DHT22;67061;48.524;9.040;2023-06-19T14:56:36;30.20;36.40
77865;DHT22;67061;48.524;9.040;2023-06-19T14:59:03;30.30;35.10
77865;DHT22;67061;48.524;9.040;2023-06-19T15:01:30;30.30;35.10
77865;DHT22;67061;48.524;9.040;2023-06-19T15:03:57;30.40;35.80
77865;DHT22;67061;48.524;9.040;2023-06-19T15:06:24;30.50;34.40
77865;DHT22;67061;48.524;9.040;2023-06-19T15:08:52;30.30;34.40
77865;DHT22;67061;48.524;9.040;2023-06-19T15:11:20;30.30;34.70
77865;DHT22;67061;48.524;9.040;2023-06-19T15:13:47;30.20;34.70
77865;DHT22;67061;48.524;9.040;2023-06-19T15:16:13;30.10;35.50
77865;DHT22;67061;48.524;9.040;2023-06-19T15:18:41;30.00;35.00
77865;DHT22;67061;48.524;9.040;2023-06-19T15:21:07;29.90;35.70
77865;DHT22;67061;48.524;9.040;2023-06-19T15:23:34;29.80;37.00
77865;DHT22;67061;48.524;9.040;2023-06-19T15:26:01;29.60;38.50
77865;DHT22;67061;48.524;9.040;2023-06-19T15:28:31;29.50;38.50
77865;DHT22;67061;48.524;9.040;2023-06-19T15:30:57;29.30;40.00
77865;DHT22;67061;48.524;9.040;2023-06-19T15:33:24;29.30;43.10
77865;DHT22;67061;48.524;9.040;2023-06-19T15:35:51;29.10;39.80